Time;durP1;ratioP1;P1;durP2;ratioP2;P2;SDS_P1;SDS_P2;PMS_P1;PMS_P2;Temp;Humidity;BMP_temperature;BMP_pressure;BME280_temperature;BME280_humidity;BME280_pressure;Samples;Min_cycle;Max_cycle;Signal;HPM_P1;HPM_P2
2021/10/17 00:00:25;;;;;;;6.37;4.10;;;;;;;22.93;55.89;101062.76;1722744;81;21206;-49
2021/10/17 00:02:53;;;;;;;6.10;3.98;;;;;;;22.92;55.86;101058.91;1725338;81;21090;-50
2021/10/17 00:05:26;;;;;;;5.33;3.87;;;;;;;22.91;55.83;101065.06;1721457;81;21242;-49
2021/10/17 00:07:52;;;;;;;6.87;4.25;;;;;;;22.91;55.81;101064.23;1726050;81;21063;-51
2021/10/17 00:10:32;;;;;;;6.72;4.33;;;;;;;22.88;55.77;101062.91;1716969;81;21064;-47
2021/10/17 00:13:00;;;;;;;5.87;3.98;;;;;;;22.88;55.76;101062.09;1731432;81;21170;-47
2021/10/17 00:15:26;;;;;;;6.62;4.35;;;;;;;22.86;55.72;101066.60;1718725;81;21106;-48
2021/10/17 00:17:52;;;;;;;6.22;4.10;;;;;;;22.85;55.72;101058.59;1721356;81;21112;-49
2021/10/17 00:20:21;;;;;;;6.17;4.15;;;;;;;22.84;55.72;101055.56;1729630;82;21173;-50
2021/10/17 00:22:47;;;;;;;6.00;4.20;;;;;;;22.80;55.70;101059.57;1709150;81;21106;-51
2021/10/17 00:25:13;;;;;;;6.47;3.98;;;;;;;22.81;55.70;101065.38;1726854;81;21100;-48
2021/10/17 00:27:39;;;;;;;5.42;4.20;;;;;;;22.80;55.69;101058.19;1724075;81;21103;-51
2021/10/17 00:30:07;;;;;;;6.00;4.17;;;;;;;22.78;55.71;101060.48;1722668;81;21048;-49
2021/10/17 00:32:33;;;;;;;5.72;4.25;;;;;;;22.78;55.71;101056.89;1727129;81;21054;-50
2021/10/17 00:35:01;;;;;;;5.53;3.75;;;;;;;22.76;55.70;101066.92;1715151;81;21575;-51
2021/10/17 00:37:31;;;;;;;5.72;4.10;;;;;;;22.75;55.73;101063.33;1722220;81;21062;-51
2021/10/17 00:39:57;;;;;;;5.92;3.80;;;;;;;22.73;55.72;101062.84;1716128;81;21092;-48
2021/10/17 00:42:23;;;;;;;5.35;3.87;;;;;;;22.73;55.72;101064.80;1709677;82;22130;-48
2021/10/17 00:44:59;;;;;;;6.03;3.92;;;;;;;22.71;55.73;101062.34;1727536;81;21039;-48
2021/10/17 00:47:25;;;;;;;6.10;4.10;;;;;;;22.71;55.71;101062.34;1713471;82;21032;-49
2021/10/17 00:49:51;;;;;;;6.22;3.98;;;;;;;22.69;55.72;101054.12;1719381;81;21064;-48
2021/10/17 00:52:17;;;;;;;5.17;3.80;;;;;;;22.67;55.75;101057.74;1715475;81;21130;-49
2021/10/17 00:54:44;;;;;;;6.00;4.15;;;;;;;22.65;55.74;101053.11;1712595;82;21360;-49
2021/10/17 00:57:11;;;;;;;6.12;3.92;;;;;;;22.64;55.75;101052.28;1724820;81;22695;-48
2021/10/17 00:59:38;;;;;;;5.70;3.87;;;;;;;22.63;55.74;101052.60;1716923;81;21121;-49
2021/10/17 01:02:05;;;;;;;5.60;4.05;;;;;;;22.62;55.75;101054.55;1723554;81;21917;-48
2021/10/17 01:04:32;;;;;;;5.10;3.67;;;;;;;22.61;55.76;101055.72;1715562;81;21581;-51
2021/10/17 01:06:58;;;;;;;4.95;3.70;;;;;;;22.61;55.76;101057.11;1719735;81;21187;-48
2021/10/17 01:09:25;;;;;;;5.58;3.80;;;;;;;22.59;55.77;101052.44;1717223;81;22043;-47
2021/10/17 01:11:51;;;;;;;5.40;3.83;;;;;;;22.58;55.78;101052.75;1714484;82;21146;-51
2021/10/17 01:14:18;;;;;;;5.33;3.80;;;;;;;22.58;55.78;101053.58;1723893;81;21151;-48
2021/10/17 01:16:45;;;;;;;5.95;3.87;;;;;;;22.57;55.79;101051.97;1709660;82;21114;-50
2021/10/17 01:19:11;;;;;;;4.65;3.33;;;;;;;22.56;55.79;101050.33;1717065;81;21075;-48
2021/10/17 01:21:38;;;;;;;6.60;4.03;;;;;;;22.56;55.79;101051.71;1723301;81;21472;-48
2021/10/17 01:24:05;;;;;;;4.87;3.62;;;;;;;22.55;55.79;101055.62;1723185;81;21091;-47
2021/10/17 01:26:32;;;;;;;5.62;3.40;;;;;;;22.55;55.80;101052.84;1724500;81;21442;-51
2021/10/17 01:28:58;;;;;;;4.80;3.60;;;;;;;22.54;55.80;101052.59;1727396;81;21083;-48
2021/10/17 01:31:50;;;;;;;5.50;3.80;;;;;;;22.52;55.82;101046.57;1728845;81;21181;-50
2021/10/17 01:34:16;;;;;;;4.42;3.50;;;;;;;22.53;55.80;101052.34;1713312;81;21711;-48
2021/10/17 01:36:43;;;;;;;4.85;3.47;;;;;;;22.52;55.81;101048.52;1716777;81;21087;-50
2021/10/17 01:39:11;;;;;;;6.33;3.95;;;;;;;22.52;55.81;101052.12;1709867;82;21075;-48
2021/10/17 01:41:37;;;;;;;5.25;3.65;;;;;;;22.51;55.84;101058.80;1723871;81;21186;-51
2021/10/17 01:44:10;;;;;;;4.05;3.20;;;;;;;22.51;55.84;101057.41;1727068;81;21155;-49
2021/10/17 01:46:36;;;;;;;5.67;4.08;;;;;;;22.51;55.83;101057.98;1723979;81;21713;-48
2021/10/17 01:49:07;;;;;;;5.37;3.80;;;;;;;22.49;55.83;101065.82;1718928;81;21107;-48
2021/10/17 01:51:33;;;;;;;5.22;3.60;;;;;;;22.49;55.84;101063.83;1723113;82;21103;-48
2021/10/17 01:54:00;;;;;;;5.55;3.70;;;;;;;22.48;55.84;101066.38;1725537;81;21054;-48
2021/10/17 01:56:26;;;;;;;7.37;3.72;;;;;;;22.48;55.85;101067.77;1721042;82;22032;-49
2021/10/17 01:58:52;;;;;;;4.60;3.70;;;;;;;22.48;55.84;101064.18;1721010;81;20917;-50
2021/10/17 02:01:18;;;;;;;5.65;3.62;;;;;;;22.48;55.86;101067.77;1713373;81;21621;-48
2021/10/17 02:03:44;;;;;;;5.40;3.87;;;;;;;22.47;55.85;101063.36;1718812;81;21078;-50
2021/10/17 02:06:10;;;;;;;4.92;3.60;;;;;;;22.47;55.85;101062.54;1725668;81;21539;-48
2021/10/17 02:08:36;;;;;;;5.80;3.58;;;;;;;22.46;55.87;101068.66;1731199;81;21355;-49
2021/10/17 02:11:02;;;;;;;5.65;3.42;;;;;;;22.46;55.86;101070.04;1729339;81;21176;-51
2021/10/17 02:13:28;;;;;;;4.65;3.45;;;;;;;22.46;55.87;101065.06;1724539;81;20941;-52
2021/10/17 02:15:54;;;;;;;5.42;3.72;;;;;;;22.45;55.87;101064.84;1729427;81;21688;-51
2021/10/17 02:18:20;;;;;;;4.12;3.45;;;;;;;22.45;55.86;101069.78;1718721;81;21040;-48
2021/10/17 02:20:46;;;;;;;4.97;3.60;;;;;;;22.47;55.89;101067.52;1719520;81;21526;-48
2021/10/17 02:23:13;;;;;;;5.05;3.67;;;;;;;22.49;55.97;101069.38;1725626;81;21115;-50
2021/10/17 02:25:39;;;;;;;5.33;3.47;;;;;;;22.51;56.07;101068.50;1716017;81;21065;-49
2021/10/17 02:28:05;;;;;;;5.25;3.45;;;;;;;22.54;56.16;101069.80;1725575;81;21091;-49
2021/10/17 02:30:31;;;;;;;5.30;3.60;;;;;;;22.56;56.21;101071.13;1721979;81;21156;-49
2021/10/17 02:32:57;;;;;;;5.83;3.17;;;;;;;22.59;56.25;101071.03;1717041;81;21273;-47
2021/10/17 02:35:23;;;;;;;4.72;3.30;;;;;;;22.60;56.17;101069.90;1724347;81;20987;-48
2021/10/17 02:37:49;;;;;;;5.22;3.92;;;;;;;22.60;56.11;101072.11;1716835;81;21038;-47
2021/10/17 02:40:15;;;;;;;4.33;3.37;;;;;;;22.62;56.04;101075.35;1721337;81;21127;-47
2021/10/17 02:42:41;;;;;;;5.10;3.47;;;;;;;22.63;55.97;101072.83;1723188;81;20901;-49
2021/10/17 02:45:08;;;;;;;3.80;3.22;;;;;;;22.64;55.90;101076.42;1731123;81;21357;-49
2021/10/17 02:47:34;;;;;;;4.67;3.45;;;;;;;22.64;55.83;101077.25;1726585;82;21128;-47
2021/10/17 02:50:00;;;;;;;5.05;3.42;;;;;;;22.63;55.79;101072.02;1718090;81;20988;-48
2021/10/17 02:52:26;;;;;;;5.70;3.40;;;;;;;22.63;55.75;101076.99;1714754;81;21096;-47
2021/10/17 02:54:53;;;;;;;4.72;3.52;;;;;;;22.62;55.70;101075.35;1722705;81;21129;-50
2021/10/17 02:57:19;;;;;;;5.92;3.30;;;;;;;22.62;55.64;101068.98;1724901;81;21087;-47
2021/10/17 02:59:46;;;;;;;5.00;3.58;;;;;;;22.60;55.63;101072.11;1701488;82;20964;-50
2021/10/17 03:02:13;;;;;;;3.60;3.02;;;;;;;22.59;55.62;101076.58;1724756;81;21100;-48
2021/10/17 03:04:40;;;;;;;4.40;3.25;;;;;;;22.58;55.59;101071.59;1713271;81;21059;-50
2021/10/17 03:07:06;;;;;;;3.50;2.58;;;;;;;22.57;55.57;101075.53;1724417;81;21569;-49
2021/10/17 03:09:32;;;;;;;3.27;2.33;;;;;;;22.58;55.57;101077.71;1713748;82;22905;-49
2021/10/17 03:11:58;;;;;;;3.47;2.65;;;;;;;22.59;55.52;101076.58;1727697;81;20860;-48
2021/10/17 03:14:24;;;;;;;4.15;2.70;;;;;;;22.60;55.47;101083.77;1718358;81;21628;-47
2021/10/17 03:16:50;;;;;;;3.50;2.65;;;;;;;22.61;55.39;101079.29;1726979;81;20920;-49
2021/10/17 03:19:16;;;;;;;4.08;2.70;;;;;;;22.62;55.30;101078.69;1723590;81;21102;-48
2021/10/17 03:21:44;;;;;;;3.40;2.40;;;;;;;22.64;55.26;101081.97;1721050;81;21671;-48
2021/10/17 03:24:10;;;;;;;3.72;2.50;;;;;;;22.64;55.19;101084.18;1715830;82;21033;-48
2021/10/17 03:26:36;;;;;;;2.90;2.30;;;;;;;22.65;55.15;101080.27;1726807;81;21651;-47
2021/10/17 03:29:02;;;;;;;4.40;2.50;;;;;;;22.69;55.09;101088.78;1719636;82;21047;-49
2021/10/17 03:31:28;;;;;;;3.20;2.22;;;;;;;22.68;55.06;101087.94;1721488;81;21059;-48
2021/10/17 03:33:54;;;;;;;3.37;2.30;;;;;;;22.71;55.04;101088.70;1728722;81;22034;-50
2021/10/17 03:36:20;;;;;;;3.90;2.50;;;;;;;22.72;55.01;101090.33;1720136;81;20873;-48
2021/10/17 03:38:47;;;;;;;3.30;2.17;;;;;;;22.73;55.00;101091.97;1724817;81;21419;-52
2021/10/17 03:41:13;;;;;;;2.85;2.22;;;;;;;22.75;54.99;101092.45;1728674;81;21487;-50
2021/10/17 03:43:40;;;;;;;2.80;2.17;;;;;;;22.76;54.96;101089.93;1722642;81;21177;-52
2021/10/17 03:46:06;;;;;;;3.40;2.50;;;;;;;22.78;54.97;101089.61;1720736;81;21171;-49
2021/10/17 03:48:34;;;;;;;3.15;2.08;;;;;;;22.80;54.95;101085.11;1730900;81;21599;-51
2021/10/17 03:51:00;;;;;;;3.77;1.80;;;;;;;22.82;54.94;101093.37;1714164;81;21072;-50
2021/10/17 03:53:26;;;;;;;3.12;2.35;;;;;;;22.83;54.95;101090.03;1728584;81;21066;-48
2021/10/17 03:55:52;;;;;;;3.85;2.33;;;;;;;22.84;54.97;101099.95;1727132;81;20890;-50
2021/10/17 03:58:18;;;;;;;3.55;2.65;;;;;;;22.86;54.97;101097.69;1721744;81;21391;-48
2021/10/17 04:00:44;;;;;;;3.10;2.00;;;;;;;22.88;54.98;101095.39;1725396;81;21068;-48
2021/10/17 04:03:10;;;;;;;3.08;2.00;;;;;;;22.89;54.99;101099.80;1716903;81;21080;-48
2021/10/17 04:05:36;;;;;;;3.10;2.30;;;;;;;22.89;54.97;101103.39;1712930;81;21491;-48
2021/10/17 04:08:02;;;;;;;2.45;2.02;;;;;;;22.90;54.98;101108.37;1718096;81;21560;-48
2021/10/17 04:10:29;;;;;;;3.15;2.25;;;;;;;22.91;54.98;101108.63;1717958;81;21172;-49
2021/10/17 04:12:55;;;;;;;3.22;2.20;;;;;;;22.92;55.00;101107.47;1720360;81;21128;-50
2021/10/17 04:15:21;;;;;;;2.55;1.92;;;;;;;22.93;54.98;101116.86;1706233;81;20961;-49
2021/10/17 04:17:47;;;;;;;3.70;2.42;;;;;;;22.93;55.03;101116.86;1718828;81;21031;-48
2021/10/17 04:20:13;;;;;;;2.50;1.95;;;;;;;22.93;55.00;101114.09;1722066;81;21016;-48
2021/10/17 04:22:41;;;;;;;2.12;1.77;;;;;;;22.94;54.99;101117.69;1719494;82;21592;-48
2021/10/17 04:25:08;;;;;;;3.15;2.27;;;;;;;22.94;54.99;101121.84;1718006;81;21494;-47
2021/10/17 04:27:33;;;;;;;5.97;2.10;;;;;;;22.94;54.98;101114.91;1714120;81;21525;-45
2021/10/17 04:29:59;;;;;;;3.25;2.10;;;;;;;22.94;54.99;101121.84;1725199;81;21032;-51
2021/10/17 04:32:26;;;;;;;3.02;2.00;;;;;;;22.92;54.99;101115.22;1727552;81;21038;-50
2021/10/17 04:34:52;;;;;;;4.03;2.17;;;;;;;22.92;55.01;101124.11;1727610;81;22109;-49
2021/10/17 04:37:18;;;;;;;3.65;2.10;;;;;;;22.90;55.02;101125.02;1712845;81;20896;-49
2021/10/17 04:39:44;;;;;;;4.12;2.00;;;;;;;22.89;55.06;101131.70;1727564;81;21718;-49
2021/10/17 04:42:10;;;;;;;2.90;1.87;;;;;;;22.90;55.11;101137.51;1717635;81;21136;-48
2021/10/17 04:44:38;;;;;;;3.17;2.25;;;;;;;22.91;55.22;101133.03;1719740;81;21031;-47
2021/10/17 04:47:04;;;;;;;3.02;1.72;;;;;;;22.93;55.34;101137.67;1701188;81;22134;-49
2021/10/17 04:49:30;;;;;;;4.47;1.80;;;;;;;22.96;55.44;101138.40;1721503;81;20905;-48
2021/10/17 04:51:56;;;;;;;3.00;1.85;;;;;;;22.96;55.49;101139.78;1719319;81;21075;-50
2021/10/17 04:54:22;;;;;;;3.55;1.77;;;;;;;22.99;55.47;101141.11;1740559;80;21274;-48
2021/10/17 04:56:48;;;;;;;2.72;1.80;;;;;;;23.00;55.45;101143.54;1705594;81;20934;-50
2021/10/17 04:59:17;;;;;;;2.92;1.98;;;;;;;23.02;55.38;101154.33;1726475;81;22181;-50
2021/10/17 05:01:43;;;;;;;3.08;2.15;;;;;;;23.03;55.33;101147.64;1725407;81;21098;-49
2021/10/17 05:04:09;;;;;;;2.72;1.80;;;;;;;23.04;55.27;101153.45;1737614;80;21033;-48
2021/10/17 05:06:35;;;;;;;2.27;1.70;;;;;;;23.03;55.21;101151.23;1740454;80;21435;-48
2021/10/17 05:09:01;;;;;;;2.90;1.77;;;;;;;23.03;55.17;101155.41;1729439;81;20940;-52
2021/10/17 05:11:27;;;;;;;2.65;1.70;;;;;;;23.04;55.17;101160.38;1718620;82;21127;-49
2021/10/17 05:13:53;;;;;;;3.67;1.90;;;;;;;23.02;55.14;101161.27;1728524;81;20922;-50
2021/10/17 05:16:19;;;;;;;2.65;2.00;;;;;;;23.01;55.11;101160.45;1724931;81;20913;-48
2021/10/17 05:18:45;;;;;;;2.87;1.67;;;;;;;23.01;55.11;101164.61;1724282;82;20924;-48
2021/10/17 05:21:11;;;;;;;2.58;1.87;;;;;;;23.00;55.08;101167.12;1721867;81;21165;-49
2021/10/17 05:23:37;;;;;;;2.05;1.55;;;;;;;22.98;55.09;101161.10;1729450;82;21380;-49
2021/10/17 05:26:04;;;;;;;2.40;1.80;;;;;;;22.98;55.08;101167.22;1715825;81;20918;-49
2021/10/17 05:28:31;;;;;;;2.67;1.60;;;;;;;22.97;55.10;101169.74;1720850;82;20974;-48
2021/10/17 05:31:00;;;;;;;2.20;1.75;;;;;;;22.94;55.11;101168.45;1722531;81;21036;-48
2021/10/17 05:33:30;;;;;;;2.12;1.62;;;;;;;22.94;55.12;101174.56;1715406;81;21088;-49
2021/10/17 05:35:57;;;;;;;2.22;1.50;;;;;;;22.91;55.15;101177.43;1725411;81;21895;-50
2021/10/17 05:38:24;;;;;;;2.02;1.50;;;;;;;22.91;55.17;101176.61;1719035;81;20937;-49
2021/10/17 05:40:50;;;;;;;2.58;1.57;;;;;;;22.90;55.17;101179.95;1715556;81;21186;-52
2021/10/17 05:43:16;;;;;;;3.27;1.40;;;;;;;22.89;55.16;101185.81;1711179;82;20951;-48
2021/10/17 05:45:42;;;;;;;2.67;1.57;;;;;;;22.88;55.17;101184.17;1731047;81;21099;-49
2021/10/17 05:48:08;;;;;;;2.75;1.57;;;;;;;22.86;55.19;101187.86;1729382;81;21209;-49
2021/10/17 05:50:34;;;;;;;3.25;1.80;;;;;;;22.85;55.22;101188.42;1713038;81;21174;-48
2021/10/17 05:53:00;;;;;;;2.85;1.87;;;;;;;22.84;55.22;101189.55;1724542;81;21070;-49
2021/10/17 05:55:26;;;;;;;4.08;1.52;;;;;;;22.83;55.25;101194.84;1723264;81;21513;-48
2021/10/17 05:57:52;;;;;;;2.00;1.40;;;;;;;22.83;55.26;101199.61;1728239;82;20964;-48
2021/10/17 06:00:20;;;;;;;2.80;1.70;;;;;;;22.82;55.26;101204.34;1747578;80;21471;-49
2021/10/17 06:02:47;;;;;;;2.37;1.75;;;;;;;22.82;55.28;101206.28;1753322;80;22235;-48
2021/10/17 06:05:13;;;;;;;2.33;1.50;;;;;;;22.81;55.29;101210.19;1748642;80;21008;-50
2021/10/17 06:07:39;;;;;;;2.00;1.35;;;;;;;22.80;55.30;101214.92;1745011;80;20961;-52
2021/10/17 06:10:08;;;;;;;2.30;1.50;;;;;;;22.80;55.32;101217.70;1720922;81;21524;-51
2021/10/17 06:12:39;;;;;;;2.92;1.95;;;;;;;22.79;55.34;101212.49;1708769;81;21087;-49
2021/10/17 06:15:06;;;;;;;2.33;1.40;;;;;;;22.78;55.35;101221.95;1710653;81;21405;-52
2021/10/17 06:17:33;;;;;;;2.25;1.40;;;;;;;22.76;55.35;101223.08;1713677;81;21206;-49
2021/10/17 06:19:59;;;;;;;2.02;1.20;;;;;;;22.77;55.35;101230.83;1713695;81;21131;-48
2021/10/17 06:22:25;;;;;;;1.90;1.50;;;;;;;22.76;55.36;101225.85;1719648;81;21699;-48
2021/10/17 06:24:51;;;;;;;2.00;1.10;;;;;;;22.75;55.37;101231.14;1709699;81;21265;-48
2021/10/17 06:27:17;;;;;;;1.95;1.40;;;;;;;22.75;55.38;101233.92;1710564;81;21383;-49
2021/10/17 06:29:43;;;;;;;2.00;1.35;;;;;;;22.76;55.37;101233.35;1728638;81;20992;-49
2021/10/17 06:32:09;;;;;;;4.12;1.40;;;;;;;22.74;55.37;101239.20;1702363;82;20999;-48
2021/10/17 06:34:35;;;;;;;2.17;1.50;;;;;;;22.74;55.37;101243.37;1707900;82;20922;-51
2021/10/17 06:37:01;;;;;;;5.22;1.60;;;;;;;22.74;55.38;101238.42;1705107;82;21985;-48
2021/10/17 06:39:27;;;;;;;2.20;1.40;;;;;;;22.74;55.37;101240.59;1717394;82;20985;-51
2021/10/17 06:41:54;;;;;;;2.37;1.30;;;;;;;22.74;55.39;101242.58;1710756;81;21568;-48
2021/10/17 06:44:20;;;;;;;1.92;1.50;;;;;;;22.73;55.38;101240.37;1708071;82;21546;-48
2021/10/17 06:46:47;;;;;;;1.60;1.10;;;;;;;22.73;55.39;101244.53;1742738;81;20985;-51
2021/10/17 06:49:13;;;;;;;2.00;1.32;;;;;;;22.72;55.39;101242.89;1727315;81;21345;-48
2021/10/17 06:51:39;;;;;;;1.85;1.20;;;;;;;22.72;55.40;101247.05;1717429;81;20851;-49
2021/10/17 06:54:05;;;;;;;1.62;1.12;;;;;;;22.72;55.39;101247.05;1731482;80;21080;-48
2021/10/17 06:56:32;;;;;;;1.80;1.20;;;;;;;22.72;55.38;101251.22;1705991;81;21364;-49
2021/10/17 06:58:58;;;;;;;1.95;1.17;;;;;;;22.71;55.39;101250.95;1710860;81;21126;-49
2021/10/17 07:01:24;;;;;;;1.50;1.10;;;;;;;22.69;55.38;101253.25;1709194;81;21633;-50
2021/10/17 07:03:50;;;;;;;3.17;1.30;;;;;;;22.71;55.40;101252.91;1750268;80;20963;-50
2021/10/17 07:06:16;;;;;;;3.50;2.02;;;;;;;22.70;55.42;101257.64;1750862;80;21094;-48
2021/10/17 07:08:42;;;;;;;10.53;4.05;;;;;;;22.69;55.43;101258.80;1720246;81;21509;-49
2021/10/17 07:11:08;;;;;;;7.05;2.45;;;;;;;22.68;55.46;101259.08;1741838;80;21083;-49
2021/10/17 07:13:35;;;;;;;2.75;1.65;;;;;;;22.68;55.50;101254.91;1745948;80;21350;-49
2021/10/17 07:16:01;;;;;;;4.25;1.65;;;;;;;22.70;55.51;101260.41;1708911;81;21040;-48
2021/10/17 07:18:27;;;;;;;5.60;2.08;;;;;;;22.74;55.61;101261.41;1743727;80;20929;-54
2021/10/17 07:20:52;;;;;;;2.50;1.45;;;;;;;22.76;55.74;101259.14;1749880;80;20940;-47
2021/10/17 07:23:19;;;;;;;13.72;3.75;;;;;;;22.81;55.87;101261.52;1747431;80;21070;-47
2021/10/17 07:25:46;;;;;;;3.98;1.37;;;;;;;22.83;55.92;101261.43;1746014;80;22272;-49
2021/10/17 07:28:12;;;;;;;7.47;1.87;;;;;;;22.86;55.93;101258.03;1718321;81;21134;-50
2021/10/17 07:30:38;;;;;;;10.03;2.40;;;;;;;22.89;55.89;101263.50;1723001;81;21575;-50
2021/10/17 07:33:04;;;;;;;13.80;3.50;;;;;;;22.92;55.83;101267.00;1729858;80;20944;-48
2021/10/17 07:35:30;;;;;;;16.25;4.28;;;;;;;22.94;55.75;101275.84;1711090;81;21017;-49
2021/10/17 07:37:57;;;;;;;6.53;1.45;;;;;;;22.95;55.69;101272.75;1733979;80;22052;-49
2021/10/17 07:40:24;;;;;;;3.67;1.30;;;;;;;22.95;55.66;101273.32;1726370;81;21064;-50
2021/10/17 07:42:51;;;;;;;2.50;1.20;;;;;;;22.96;55.58;101270.20;1738912;80;21130;-52
2021/10/17 07:45:17;;;;;;;1.70;0.93;;;;;;;22.96;55.53;101276.31;1722937;81;21244;-50
2021/10/17 07:47:43;;;;;;;2.90;1.10;;;;;;;22.96;55.48;101278.53;1717080;81;20936;-48
2021/10/17 07:50:09;;;;;;;3.35;1.30;;;;;;;22.97;55.44;101280.73;1713034;82;21297;-51
2021/10/17 07:52:36;;;;;;;8.60;2.30;;;;;;;22.96;55.42;101284.64;1723268;81;21690;-49
2021/10/17 07:55:07;;;;;;;3.87;1.05;;;;;;;22.96;55.36;101284.64;1720774;81;21112;-49
2021/10/17 07:57:48;;;;;;;1.50;1.00;;;;;;;22.94;55.34;101279.44;1713167;81;21165;-49
2021/10/17 08:00:24;;;;;;;7.17;2.10;;;;;;;22.94;55.30;101286.38;1735648;81;21276;-51
2021/10/17 08:02:50;;;;;;;6.37;1.82;;;;;;;22.93;55.27;101288.07;1728148;80;21619;-49
2021/10/17 08:05:16;;;;;;;64.15;21.70;;;;;;;22.91;55.25;101284.25;1735862;80;21053;-52
2021/10/17 08:07:43;;;;;;;5.12;2.00;;;;;;;22.90;55.25;101282.61;1693305;82;21636;-48
2021/10/17 08:10:09;;;;;;;15.80;3.80;;;;;;;22.89;55.24;101287.91;1716422;82;21107;-48
2021/10/17 08:12:36;;;;;;;17.40;3.30;;;;;;;22.89;55.24;101291.24;1739912;80;21566;-51
2021/10/17 08:15:03;;;;;;;4.53;1.62;;;;;;;22.88;55.24;101290.98;1758177;80;22040;-50
2021/10/17 08:17:29;;;;;;;7.78;2.72;;;;;;;22.87;55.22;101292.15;1708708;82;21082;-49
2021/10/17 08:19:55;;;;;;;6.80;2.47;;;;;;;22.86;55.22;101292.72;1744129;80;21608;-49
2021/10/17 08:22:22;;;;;;;3.80;1.32;;;;;;;22.86;55.22;101293.28;1751941;79;21100;-49
2021/10/17 08:24:48;;;;;;;8.85;3.05;;;;;;;22.85;55.20;101295.80;1715819;81;21673;-48
2021/10/17 08:27:14;;;;;;;2.98;1.07;;;;;;;22.85;55.22;101297.19;1707319;82;21988;-50
2021/10/17 08:29:40;;;;;;;4.53;1.85;;;;;;;22.83;55.20;101294.72;1704721;81;21061;-48
2021/10/17 08:32:06;;;;;;;13.65;3.75;;;;;;;22.84;55.20;101302.48;1710910;81;20946;-47
2021/10/17 08:34:33;;;;;;;5.20;1.52;;;;;;;22.83;55.19;101298.09;1718698;81;22025;-52
2021/10/17 08:36:59;;;;;;;3.17;1.42;;;;;;;22.82;55.18;101297.84;1753070;80;21066;-52
2021/10/17 08:39:25;;;;;;;16.10;4.97;;;;;;;22.82;55.18;101304.77;1738902;80;21888;-53
2021/10/17 08:41:51;;;;;;;16.35;4.75;;;;;;;22.82;55.17;101306.16;1732246;80;21063;-53
2021/10/17 08:44:18;;;;;;;5.10;1.45;;;;;;;22.81;55.15;101298.97;1743185;80;20881;-50
2021/10/17 08:46:44;;;;;;;18.75;6.47;;;;;;;22.80;55.17;101304.27;1718159;81;21138;-48
2021/10/17 08:49:11;;;;;;;92.25;26.65;;;;;;;22.81;55.15;101303.95;1714684;81;21087;-50
2021/10/17 08:51:37;;;;;;;27.65;8.30;;;;;;;22.81;55.12;101300.36;1704674;82;21257;-46
2021/10/17 08:54:04;;;;;;;22.45;6.40;;;;;;;22.80;55.10;101307.03;1722778;81;21034;-52
2021/10/17 08:56:31;;;;;;;53.70;13.55;;;;;;;22.79;55.13;101306.21;1716401;81;21098;-51
2021/10/17 08:58:57;;;;;;;11.65;2.90;;;;;;;22.80;55.12;101304.27;1713967;81;21112;-47
2021/10/17 09:01:23;;;;;;;8.33;1.80;;;;;;;22.79;55.10;101307.59;1712088;81;20902;-47
2021/10/17 09:03:56;;;;;;;7.28;1.50;;;;;;;22.80;55.10;101300.10;1714353;81;21536;-48
2021/10/17 09:06:27;;;;;;;6.10;1.85;;;;;;;22.79;55.08;101296.50;1725331;81;21005;-48
2021/10/17 09:09:10;;;;;;;8.78;3.22;;;;;;;22.79;55.09;101304.03;1716560;81;21075;-50
2021/10/17 09:11:44;;;;;;;2.40;1.22;;;;;;;22.78;55.07;101299.62;1720903;81;21078;-49
2021/10/17 09:14:19;;;;;;;7.83;2.00;;;;;;;22.78;55.04;101299.62;1714165;81;21558;-50
2021/10/17 09:16:48;;;;;;;2.95;1.10;;;;;;;22.79;55.04;101298.48;1717535;81;21678;-53
2021/10/17 09:19:23;;;;;;;1.47;0.88;;;;;;;22.78;55.05;101298.23;1720296;81;21118;-52
2021/10/17 09:22:06;;;;;;;2.33;1.07;;;;;;;22.76;55.04;101295.77;1709677;81;21315;-53
2021/10/17 09:24:38;;;;;;;35.13;15.80;;;;;;;22.76;55.04;101297.98;1718701;81;21119;-52
2021/10/17 09:27:15;;;;;;;56.28;25.62;;;;;;;22.78;55.01;101297.66;1717436;82;21185;-53
2021/10/17 09:29:48;;;;;;;42.67;18.90;;;;;;;22.79;55.01;101297.10;1719683;81;21554;-51
2021/10/17 09:32:17;;;;;;;33.60;15.72;;;;;;;22.79;54.97;101299.28;1713040;81;21147;-54
2021/10/17 09:35:03;;;;;;;26.33;14.13;;;;;;;22.80;55.00;101293.16;1718181;81;21115;-50
2021/10/17 09:37:38;;;;;;;28.65;14.55;;;;;;;22.80;54.98;101295.38;1715291;81;21128;-49
2021/10/17 09:40:09;;;;;;;34.20;14.87;;;;;;;22.82;54.98;101301.44;1720479;81;21104;-53
2021/10/17 09:42:42;;;;;;;22.90;13.45;;;;;;;22.84;54.97;101299.70;1717477;81;21463;-53
2021/10/17 09:45:22;;;;;;;16.60;9.83;;;;;;;22.83;54.97;101294.72;1724949;81;21523;-53
2021/10/17 09:47:48;;;;;;;13.98;7.85;;;;;;;22.85;54.92;101294.41;1713220;81;21127;-53
2021/10/17 09:50:18;;;;;;;13.62;7.47;;;;;;;22.83;54.66;101297.50;1719267;81;21637;-54
2021/10/17 09:53:01;;;;;;;11.68;6.58;;;;;;;22.80;54.44;101295.38;1719182;81;21202;-51
2021/10/17 09:55:26;;;;;;;35.25;15.23;;;;;;;22.76;54.13;101295.20;1723491;81;21073;-52
2021/10/17 09:57:52;;;;;;;8.93;4.45;;;;;;;22.72;53.81;101291.44;1720470;81;21605;-53
2021/10/17 10:00:19;;;;;;;5.22;3.60;;;;;;;22.68;53.56;101293.19;1730197;81;20932;-55
2021/10/17 10:02:46;;;;;;;4.42;3.02;;;;;;;22.66;53.26;101290.49;1714558;81;21120;-52
2021/10/17 10:05:18;;;;;;;6.95;3.55;;;;;;;22.63;53.05;101286.38;1711412;81;21217;-53
2021/10/17 10:07:44;;;;;;;8.98;3.35;;;;;;;22.63;52.82;101282.22;1728437;81;21189;-55
2021/10/17 10:10:10;;;;;;;6.33;3.20;;;;;;;22.64;52.80;101283.86;1724102;81;20869;-52
2021/10/17 10:12:38;;;;;;;5.20;3.05;;;;;;;22.67;52.83;101290.72;1696614;83;21012;-54
2021/10/17 10:15:06;;;;;;;5.12;2.80;;;;;;;22.70;52.88;101285.38;1722951;81;21076;-55
2021/10/17 10:17:32;;;;;;;5.67;2.70;;;;;;;22.73;52.91;101291.69;1715900;82;21122;-54
2021/10/17 10:19:59;;;;;;;5.12;2.50;;;;;;;22.75;52.90;101288.58;1736389;80;22139;-53
2021/10/17 10:22:28;;;;;;;3.70;2.12;;;;;;;22.78;52.94;101286.57;1735353;80;21089;-54
2021/10/17 10:24:54;;;;;;;4.08;2.00;;;;;;;22.81;52.95;101290.64;1735619;81;21083;-54
2021/10/17 10:27:20;;;;;;;24.32;9.53;;;;;;;22.84;52.95;101288.61;1737102;80;21126;-55
2021/10/17 10:29:46;;;;;;;5.05;2.87;;;;;;;22.85;52.98;101289.69;1712288;82;20954;-56
2021/10/17 10:32:24;;;;;;;3.77;2.05;;;;;;;22.88;53.00;101290.98;1686792;82;22323;-49
2021/10/17 10:34:52;;;;;;;5.50;2.10;;;;;;;22.90;53.03;101290.94;1721899;81;21079;-55
2021/10/17 10:37:24;;;;;;;2.70;1.95;;;;;;;22.92;53.06;101282.27;1730142;81;21158;-51
2021/10/17 10:40:05;;;;;;;10.38;4.10;;;;;;;22.95;53.06;101282.47;1722926;81;21306;-50
2021/10/17 10:42:43;;;;;;;6.40;2.27;;;;;;;22.98;53.09;101283.77;1720828;81;36123;-50
2021/10/17 10:45:34;;;;;;;3.27;2.20;;;;;;;22.99;53.11;101279.86;1713620;81;22185;-49
2021/10/17 10:48:12;;;;;;;4.62;2.05;;;;;;;23.00;53.11;101278.13;1711496;81;21513;-54
2021/10/17 10:50:41;;;;;;;4.42;1.67;;;;;;;23.03;53.15;101276.69;1719882;81;21033;-50
2021/10/17 10:53:11;;;;;;;19.50;6.08;;;;;;;23.04;53.18;101276.94;1742187;80;21510;-50
2021/10/17 10:55:51;;;;;;;20.57;6.40;;;;;;;23.04;53.21;101274.95;1756365;80;21087;-49
2021/10/17 10:58:26;;;;;;;3.37;2.33;;;;;;;23.06;53.23;101269.09;1739121;80;20965;-52
2021/10/17 11:00:53;;;;;;;2.83;1.95;;;;;;;23.07;53.24;101269.34;1759044;80;21443;-51
2021/10/17 11:03:19;;;;;;;7.25;2.85;;;;;;;23.07;53.25;101261.84;1745995;79;21547;-48
2021/10/17 11:06:10;;;;;;;10.58;3.50;;;;;;;23.07;53.27;101259.06;1746935;80;21258;-50
2021/10/17 11:08:38;;;;;;;3.30;1.70;;;;;;;23.09;53.30;101255.95;1729908;80;21109;-52
2021/10/17 11:11:05;;;;;;;7.15;3.02;;;;;;;23.09;53.34;101252.61;1729592;80;22522;-53
2021/10/17 11:13:45;;;;;;;15.45;4.92;;;;;;;23.11;53.35;101252.30;1708337;81;21080;-49
2021/10/17 11:16:22;;;;;;;32.25;10.05;;;;;;;23.12;53.37;101251.16;1704795;81;21083;-51
2021/10/17 11:19:03;;;;;;;21.57;7.87;;;;;;;23.13;53.39;101252.77;1721196;81;21092;-49
2021/10/17 11:21:30;;;;;;;19.60;8.08;;;;;;;23.14;53.41;101253.02;1732653;80;21394;-50
2021/10/17 11:23:57;;;;;;;20.60;8.00;;;;;;;23.15;53.44;101250.50;1728898;80;21148;-49
2021/10/17 11:26:23;;;;;;;19.80;8.25;;;;;;;23.15;53.46;101247.73;1724914;80;21532;-50